createdAt,value
2023-03-03T00:00:28.508Z,98079.31
2023-03-03T00:05:33.832Z,98082.75
2023-03-03T00:10:36.982Z,98077.78
2023-03-03T00:15:39.736Z,98065.16
2023-03-03T00:20:50.047Z,98067.09
2023-03-03T00:25:54.665Z,98067.22
2023-03-03T00:31:00.217Z,98062.16
2023-03-03T00:36:14.731Z,98059.59
2023-03-03T00:41:24.269Z,98040.91
2023-03-03T00:46:26.924Z,98039.94
2023-03-03T00:51:33.234Z,98035.75
2023-03-03T00:56:35.827Z,98017.06
2023-03-03T01:01:38.519Z,98009.22
2023-03-03T01:06:41.210Z,98016.00
2023-03-03T01:11:43.893Z,98012.69
2023-03-03T01:16:46.739Z,98002.34
2023-03-03T01:21:49.288Z,97982.66
2023-03-03T01:26:52.081Z,97992.94
2023-03-03T01:31:54.898Z,98001.59
2023-03-03T01:36:57.694Z,98001.59
2023-03-03T01:42:00.278Z,98000.00
2023-03-03T01:47:29.782Z,98006.09
2023-03-03T01:52:39.737Z,98007.84
2023-03-03T01:57:47.063Z,97993.41
2023-03-03T02:02:49.951Z,97978.13
2023-03-03T02:07:53.128Z,97969.53
2023-03-03T02:12:57.898Z,97978.03
2023-03-03T02:18:05.872Z,97968.66
2023-03-03T02:23:20.856Z,97955.97
2023-03-03T02:28:28.061Z,97959.44
2023-03-03T02:33:30.899Z,97958.59
2023-03-03T02:38:36.541Z,97936.63
2023-03-03T02:43:46.261Z,97922.19
2023-03-03T02:48:49.744Z,97938.28
2023-03-03T02:53:52.483Z,97934.06
2023-03-03T02:58:55.391Z,97923.81
2023-03-03T03:03:58.961Z,97919.59
2023-03-03T03:09:02.060Z,97921.31
2023-03-03T03:14:08.025Z,97894.19
2023-03-03T03:19:11.278Z,97922.19
2023-03-03T03:24:15.558Z,97911.97
2023-03-03T03:29:23.527Z,97906.88
2023-03-03T03:34:26.987Z,97910.28
2023-03-03T03:39:31.567Z,97895.78
2023-03-03T03:44:34.334Z,97901.75
2023-03-03T03:49:37.784Z,97905.16
2023-03-03T03:54:41.064Z,97900.03
2023-03-03T03:59:43.735Z,97891.53
2023-03-03T04:04:46.498Z,97890.75
2023-03-03T04:09:49.410Z,97879.72
2023-03-03T04:14:52.126Z,97888.22
2023-03-03T04:19:55.463Z,97881.50
2023-03-03T04:24:58.599Z,97884.00
2023-03-03T04:30:04.839Z,97880.63
2023-03-03T04:35:09.057Z,97888.31
2023-03-03T04:40:15.203Z,97886.63
2023-03-03T04:45:18.641Z,97882.41
2023-03-03T04:50:22.426Z,97872.22
2023-03-03T04:55:25.296Z,97877.31
2023-03-03T05:00:28.170Z,97886.63
2023-03-03T05:05:30.965Z,97873.09
2023-03-03T05:10:35.106Z,97876.47
2023-03-03T05:15:38.017Z,97885.78
2023-03-03T05:20:42.165Z,97888.38
2023-03-03T05:25:47.144Z,97890.91
2023-03-03T05:30:49.789Z,97891.75
2023-03-03T05:35:56.941Z,97891.78
2023-03-03T05:40:59.600Z,97891.78
2023-03-03T05:46:02.292Z,97891.78
2023-03-03T05:51:05.464Z,97892.59
2023-03-03T05:56:08.213Z,97899.31
2023-03-03T06:01:11.020Z,97886.63
2023-03-03T06:06:14.256Z,97898.53
2023-03-03T06:11:18.700Z,97900.25
2023-03-03T06:16:22.030Z,97896.81
2023-03-03T06:21:24.742Z,97906.06
2023-03-03T06:26:27.331Z,97899.28
2023-03-03T06:31:30.080Z,97891.44
2023-03-03T06:36:32.744Z,97876.03
2023-03-03T06:41:35.410Z,97890.47
2023-03-03T06:46:38.150Z,97887.03
2023-03-03T06:51:42.255Z,97885.38
2023-03-03T06:56:46.394Z,97900.63
2023-03-03T07:01:50.640Z,97907.53
2023-03-03T07:06:53.195Z,97905.00
2023-03-03T07:12:06.825Z,97911.00
2023-03-03T07:17:16.553Z,97910.91
2023-03-03T07:22:20.582Z,97920.22
2023-03-03T07:27:26.554Z,97911.63
2023-03-03T07:32:36.769Z,97926.25
2023-03-03T07:37:41.941Z,97913.50
2023-03-03T07:42:44.476Z,97932.31
2023-03-03T07:48:25.304Z,97919.50
2023-03-03T07:53:35.036Z,97921.84
2023-03-03T07:58:40.107Z,97914.91
2023-03-03T08:03:47.364Z,97914.56
2023-03-03T08:08:50.168Z,97915.31
2023-03-03T08:13:52.737Z,97909.69
2023-03-03T08:19:00.347Z,97933.38
2023-03-03T08:24:02.923Z,97918.72
2023-03-03T08:29:05.717Z,97929.63
2023-03-03T08:34:08.634Z,97904.25
2023-03-03T08:39:11.397Z,97935.72
2023-03-03T08:44:14.024Z,97939.28
2023-03-03T08:49:16.710Z,97934.81
2023-03-03T08:54:19.385Z,97944.03
2023-03-03T08:59:22.503Z,97949.03
2023-03-03T09:04:25.103Z,97933.44
2023-03-03T09:09:27.854Z,97941.19
2023-03-03T09:14:30.457Z,97941.09
2023-03-03T09:19:37.475Z,97936.13
2023-03-03T09:24:42.950Z,97943.16
2023-03-03T09:29:45.647Z,97945.47
2023-03-03T09:34:48.281Z,97949.97
2023-03-03T09:39:55.814Z,97941.56
2023-03-03T09:45:07.236Z,97945.38
2023-03-03T09:50:34.829Z,97940.09
2023-03-03T09:55:37.513Z,97949.47
2023-03-03T10:00:48.996Z,97946.94
2023-03-03T10:06:21.522Z,97938.00
2023-03-03T10:11:36.682Z,97927.16
2023-03-03T10:17:04.120Z,97940.44
2023-03-03T10:22:35.834Z,97925.03
2023-03-03T10:28:00.225Z,97920.53
2023-03-03T10:33:47.355Z,97930.75
2023-03-03T10:38:58.777Z,97938.72
2023-03-03T10:44:27.506Z,97942.09
2023-03-03T10:49:57.883Z,97930.91
2023-03-03T10:55:19.161Z,97939.13
2023-03-03T11:00:24.539Z,97944.13
2023-03-03T11:05:41.740Z,97945.84
2023-03-03T11:11:10.073Z,97944.41
2023-03-03T11:16:52.763Z,97946.28
2023-03-03T11:22:24.338Z,97943.78
2023-03-03T11:27:45.278Z,97950.66
2023-03-03T11:33:05.156Z,97948.28
2023-03-03T11:38:29.076Z,97949.81
2023-03-03T11:43:56.755Z,97949.53
2023-03-03T11:49:15.703Z,97951.19
2023-03-03T11:54:22.754Z,97960.13
2023-03-03T11:59:32.763Z,97962.63
2023-03-03T12:05:03.653Z,97961.75
2023-03-03T12:10:43.603Z,97962.56
2023-03-03T12:15:53.939Z,97943.75
2023-03-03T12:21:07.726Z,97952.41
2023-03-03T12:26:20.760Z,97954.94
2023-03-03T12:31:38.842Z,97955.03
2023-03-03T12:36:45.331Z,97948.28
2023-03-03T12:41:53.781Z,97960.25
2023-03-03T12:47:02.386Z,97948.50
2023-03-03T12:52:18.348Z,97951.09
2023-03-03T12:57:41.124Z,97958.56
2023-03-03T13:03:02.271Z,97954.97
2023-03-03T13:08:10.790Z,97961.19
2023-03-03T13:13:22.704Z,97962.75
2023-03-03T13:18:45.174Z,97959.41
2023-03-03T13:24:22.951Z,97950.78
2023-03-03T13:29:30.473Z,97944.81
2023-03-03T13:34:38.840Z,97941.31
2023-03-03T13:40:03.740Z,97936.97
2023-03-03T13:45:43.827Z,97942.25
2023-03-03T13:51:00.884Z,97948.03
2023-03-03T13:56:21.424Z,97948.94
2023-03-03T14:01:33.407Z,97943.84
2023-03-03T14:06:37.857Z,97955.03
2023-03-03T14:11:50.177Z,97950.00
2023-03-03T14:17:01.475Z,97954.66
2023-03-03T14:22:25.088Z,97953.00
2023-03-03T14:27:35.388Z,97958.19
2023-03-03T14:32:45.316Z,97956.63
2023-03-03T14:37:50.946Z,97959.22
2023-03-03T14:42:53.445Z,97952.38
2023-03-03T14:47:56.154Z,97950.06
2023-03-03T14:53:14.184Z,97964.53
2023-03-03T14:58:30.542Z,97968.03
2023-03-03T15:03:39.032Z,97968.03
2023-03-03T15:08:42.582Z,97974.00
2023-03-03T15:13:45.370Z,97969.00
2023-03-03T15:19:24.903Z,97979.16
2023-03-03T15:24:47.523Z,97988.50
2023-03-03T15:30:14.381Z,97959.59
2023-03-03T15:35:28.082Z,97979.97
2023-03-03T15:40:45.608Z,97986.75
2023-03-03T15:46:03.261Z,97987.63
2023-03-03T15:51:14.586Z,97987.66
2023-03-03T15:56:48.679Z,97979.19
2023-03-03T16:02:04.233Z,97987.75
2023-03-03T16:07:12.951Z,97990.28
2023-03-03T16:12:45.958Z,97987.69
2023-03-03T16:18:18.051Z,97977.47
2023-03-03T16:23:23.442Z,97986.03
2023-03-03T16:28:44.749Z,97976.66
2023-03-03T16:34:02.890Z,97975.81
2023-03-03T16:39:40.932Z,97975.00
2023-03-03T16:44:56.501Z,97969.94
2023-03-03T16:50:27.079Z,97978.44
2023-03-03T16:55:42.855Z,97978.41
2023-03-03T17:00:54.683Z,97980.91
2023-03-03T17:06:02.262Z,97984.28
2023-03-03T17:11:10.388Z,97979.19
2023-03-03T17:16:51.186Z,97974.09
2023-03-03T17:22:11.937Z,97986.84
2023-03-03T17:27:14.482Z,97977.47
2023-03-03T17:32:26.394Z,97980.03
2023-03-03T17:37:43.504Z,97977.53
2023-03-03T17:43:08.951Z,97976.66
2023-03-03T17:48:44.677Z,97975.81
2023-03-03T17:53:59.385Z,97987.69
2023-03-03T17:59:15.779Z,97974.94
2023-03-03T18:04:48.122Z,97980.03
2023-03-03T18:09:50.714Z,97979.19
2023-03-03T18:15:08.070Z,97985.97
2023-03-03T18:20:35.033Z,97982.53
2023-03-03T18:26:01.608Z,97981.63
2023-03-03T18:31:15.305Z,97989.19
2023-03-03T18:36:27.066Z,97987.41
2023-03-03T18:41:34.542Z,97983.09
2023-03-03T18:46:37.121Z,97989.13
2023-03-03T18:51:40.048Z,97986.53
2023-03-03T18:56:53.509Z,97982.09
2023-03-03T19:02:13.538Z,97981.84
2023-03-03T19:07:27.709Z,97987.75
2023-03-03T19:12:45.496Z,97996.09
2023-03-03T19:17:50.023Z,97989.13
2023-03-03T19:23:04.254Z,97987.28
2023-03-03T19:28:16.246Z,97991.56
2023-03-03T19:33:19.136Z,97987.19
2023-03-03T19:38:33.669Z,97990.66
2023-03-03T19:43:45.152Z,97968.56
2023-03-03T19:48:51.887Z,97979.78
2023-03-03T19:54:12.990Z,97977.38
2023-03-03T19:59:38.407Z,97974.06
2023-03-03T20:04:54.081Z,97970.63
2023-03-03T20:10:15.704Z,97965.66
2023-03-03T20:15:22.722Z,97962.38
2023-03-03T20:20:41.350Z,97961.50
2023-03-03T20:25:46.993Z,97946.41
2023-03-03T20:30:55.452Z,97941.41
2023-03-03T20:36:07.319Z,97937.16
2023-03-03T20:41:47.159Z,97936.38
2023-03-03T20:47:28.288Z,97933.84
2023-03-03T20:52:42.381Z,97930.41
2023-03-03T20:58:02.957Z,97922.69
2023-03-03T21:03:30.088Z,97928.69
2023-03-03T21:08:53.611Z,97919.44
2023-03-03T21:13:56.712Z,97926.19
2023-03-03T21:19:00.806Z,97910.88
2023-03-03T21:24:04.052Z,97916.72
2023-03-03T21:29:06.750Z,97910.84
2023-03-03T21:34:25.164Z,97907.59
2023-03-03T21:39:36.663Z,97903.25
2023-03-03T21:44:52.268Z,97906.72
2023-03-03T21:49:54.902Z,97901.59
2023-03-03T21:54:57.463Z,97892.31
2023-03-03T22:00:00.460Z,97863.34
2023-03-03T22:05:03.862Z,97876.19
2023-03-03T22:10:07.814Z,97863.53
2023-03-03T22:15:10.758Z,97871.97
2023-03-03T22:20:17.924Z,97877.09
2023-03-03T22:25:20.484Z,97881.34
2023-03-03T22:30:23.288Z,97878.03
2023-03-03T22:35:25.984Z,97867.84
2023-03-03T22:40:28.716Z,97864.41
2023-03-03T22:45:31.277Z,97873.81
2023-03-03T22:50:39.536Z,97869.56
2023-03-03T22:55:42.220Z,97863.63
2023-03-03T23:00:44.812Z,97861.09
2023-03-03T23:05:51.299Z,97856.81
2023-03-03T23:10:54.610Z,97855.94
2023-03-03T23:16:00.308Z,97824.56
2023-03-03T23:21:03.441Z,97851.75
2023-03-03T23:26:06.068Z,97844.88
2023-03-03T23:31:08.813Z,97838.94
2023-03-03T23:36:11.506Z,97833.03
2023-03-03T23:41:14.437Z,97813.50
2023-03-03T23:46:17.083Z,97824.59
2023-03-03T23:51:19.714Z,97811.88
2023-03-03T23:56:22.751Z,97805.06
